KOLF

L M Clayton Airport

Wolf Point, Montana, USA
METAR KOLF 232253Z AUTO 24009KT 10SM CLR M04/M09 A3012 RMK AO2 SLP238 T10441089
Observed Flight Rules
Jan-23 @ 22:53 UTC (49 minutes ago) Visual Flight Rules
Wind Visibility Clouds
240° at 9 knots 10 miles
  • Clear skies
Temperatures Readings
Current -4°C / 25°F
Dewpoint -9°C / 16°F
Humidity 69%
Altimeter 30.12" Hg
Pressure 1023.8 hPa
Elevation 604
METAR KOLF 232253Z AUTO 24009KT 10SM CLR M04/M09 A3012 RMK AO2 SLP238 T10441089
Observed Flight Rules
Jan-23 @ 22:53 UTC
(49 minutes ago)
VFR
Wind Visibility
240° at 9 knots 10 miles
Clouds
  • Clear skies
Temperature Dewpoint
-4°C / 25°F -9°C / 16°F
Humidity Altimeter Pressure
69% 30.12" Hg 1023.8 hPa